LICR/REG METAR and TAF weather

Enter ICAO airport designator
Station Type Date Time Source
LICR METAR 2020/08/15 09:50 UTC NOAA

LICR 150950Z 34011KT CAVOK 35/16 Q1011


Station Type Date Time Source
LICR Decoded METAR 2020/08/15 09:50 UTC NOAA

Reggio Calabria, Italy (LICR) 38-04N 015-39E 21M
Aug 15, 2020 - 05:50 AM EDT / 2020.08.15 0950 UTC
Wind: from the NNW (340 degrees) at 13 MPH (11 KT):0
Visibility: greater than 7 mile(s):0
Temperature: 95 F (35 C)
Heat index: 95.2 F (35.1 C):1
Dew Point: 60 F (16 C)
Relative Humidity: 32%
Pressure (altimeter): 29.85 in. Hg (1011 hPa)
ob: LICR 150950Z 34011KT CAVOK 35/16 Q1011
cycle: 10

Station Type Date Time Source
LICR TAF 2020/08/15 06:21 UTC NOAA

TAF LICR 150500Z 1506/1606 35010KT CAVOK

Example: see airport list